sensor_id;sensor_type;location;lat;lon;timestamp;P1;durP1;ratioP1;P2;durP2;ratioP2
66633;SDS011;53546;52.184;5.596;2022-10-16T00:00:39;2.80;;;1.35;;
66633;SDS011;53546;52.184;5.596;2022-10-16T00:03:06;3.05;;;1.60;;
66633;SDS011;53546;52.184;5.596;2022-10-16T00:05:32;3.83;;;1.50;;
66633;SDS011;53546;52.184;5.596;2022-10-16T00:07:58;3.30;;;1.50;;
66633;SDS011;53546;52.184;5.596;2022-10-16T00:10:23;2.97;;;1.40;;
66633;SDS011;53546;52.184;5.596;2022-10-16T00:12:49;4.30;;;1.58;;
66633;SDS011;53546;52.184;5.596;2022-10-16T00:15:14;2.90;;;1.40;;
66633;SDS011;53546;52.184;5.596;2022-10-16T00:17:40;2.65;;;1.40;;
66633;SDS011;53546;52.184;5.596;2022-10-16T00:20:05;3.97;;;1.83;;
66633;SDS011;53546;52.184;5.596;2022-10-16T00:22:31;2.67;;;1.27;;
66633;SDS011;53546;52.184;5.596;2022-10-16T00:24:58;3.05;;;1.52;;
66633;SDS011;53546;52.184;5.596;2022-10-16T00:27:25;3.22;;;1.45;;
66633;SDS011;53546;52.184;5.596;2022-10-16T00:29:51;3.17;;;1.80;;
66633;SDS011;53546;52.184;5.596;2022-10-16T00:32:17;3.22;;;1.40;;
66633;SDS011;53546;52.184;5.596;2022-10-16T00:34:44;2.13;;;1.40;;
66633;SDS011;53546;52.184;5.596;2022-10-16T00:37:09;4.10;;;1.50;;
66633;SDS011;53546;52.184;5.596;2022-10-16T00:39:42;3.92;;;1.55;;
66633;SDS011;53546;52.184;5.596;2022-10-16T00:42:31;2.72;;;1.42;;
66633;SDS011;53546;52.184;5.596;2022-10-16T00:45:00;2.58;;;1.35;;
66633;SDS011;53546;52.184;5.596;2022-10-16T00:47:37;4.68;;;1.40;;
66633;SDS011;53546;52.184;5.596;2022-10-16T00:50:07;3.85;;;1.63;;
66633;SDS011;53546;52.184;5.596;2022-10-16T00:52:34;2.97;;;1.50;;
66633;SDS011;53546;52.184;5.596;2022-10-16T00:55:00;4.82;;;1.50;;
66633;SDS011;53546;52.184;5.596;2022-10-16T00:57:28;4.13;;;1.50;;
66633;SDS011;53546;52.184;5.596;2022-10-16T00:59:53;3.25;;;1.70;;
66633;SDS011;53546;52.184;5.596;2022-10-16T01:02:19;4.15;;;1.50;;
66633;SDS011;53546;52.184;5.596;2022-10-16T01:04:46;3.47;;;1.63;;
66633;SDS011;53546;52.184;5.596;2022-10-16T01:07:26;2.42;;;1.40;;
66633;SDS011;53546;52.184;5.596;2022-10-16T01:13:10;3.75;;;1.45;;
66633;SDS011;53546;52.184;5.596;2022-10-16T01:15:37;3.85;;;1.55;;
66633;SDS011;53546;52.184;5.596;2022-10-16T01:20:42;2.75;;;1.50;;
66633;SDS011;53546;52.184;5.596;2022-10-16T01:28:51;1.95;;;1.40;;
66633;SDS011;53546;52.184;5.596;2022-10-16T01:31:24;3.20;;;1.70;;
66633;SDS011;53546;52.184;5.596;2022-10-16T01:34:09;2.00;;;1.35;;
66633;SDS011;53546;52.184;5.596;2022-10-16T01:37:00;3.75;;;1.58;;
66633;SDS011;53546;52.184;5.596;2022-10-16T01:39:30;3.17;;;1.35;;
66633;SDS011;53546;52.184;5.596;2022-10-16T01:42:03;4.68;;;1.73;;
66633;SDS011;53546;52.184;5.596;2022-10-16T01:44:32;2.60;;;1.40;;
66633;SDS011;53546;52.184;5.596;2022-10-16T01:46:58;4.03;;;1.50;;
66633;SDS011;53546;52.184;5.596;2022-10-16T01:49:24;2.58;;;1.50;;
66633;SDS011;53546;52.184;5.596;2022-10-16T01:51:52;1.98;;;1.42;;
66633;SDS011;53546;52.184;5.596;2022-10-16T01:54:20;2.88;;;1.70;;
66633;SDS011;53546;52.184;5.596;2022-10-16T01:56:48;1.98;;;1.35;;
66633;SDS011;53546;52.184;5.596;2022-10-16T01:59:15;1.90;;;1.30;;
66633;SDS011;53546;52.184;5.596;2022-10-16T02:01:43;2.45;;;1.30;;
66633;SDS011;53546;52.184;5.596;2022-10-16T02:04:33;3.28;;;1.30;;
66633;SDS011;53546;52.184;5.596;2022-10-16T02:06:58;2.13;;;1.40;;
66633;SDS011;53546;52.184;5.596;2022-10-16T02:09:24;2.00;;;1.25;;
66633;SDS011;53546;52.184;5.596;2022-10-16T02:11:50;3.17;;;1.40;;
66633;SDS011;53546;52.184;5.596;2022-10-16T02:14:17;2.63;;;1.35;;
66633;SDS011;53546;52.184;5.596;2022-10-16T02:16:44;2.58;;;1.50;;
66633;SDS011;53546;52.184;5.596;2022-10-16T02:19:10;2.70;;;1.40;;
66633;SDS011;53546;52.184;5.596;2022-10-16T02:21:40;2.38;;;1.38;;
66633;SDS011;53546;52.184;5.596;2022-10-16T02:29:25;2.83;;;1.60;;
66633;SDS011;53546;52.184;5.596;2022-10-16T02:31:53;3.40;;;1.98;;
66633;SDS011;53546;52.184;5.596;2022-10-16T02:34:21;2.10;;;1.50;;
66633;SDS011;53546;52.184;5.596;2022-10-16T02:36:49;1.95;;;1.40;;
66633;SDS011;53546;52.184;5.596;2022-10-16T02:39:15;1.40;;;1.30;;
66633;SDS011;53546;52.184;5.596;2022-10-16T02:41:42;2.08;;;1.30;;
66633;SDS011;53546;52.184;5.596;2022-10-16T02:44:07;3.55;;;1.50;;
66633;SDS011;53546;52.184;5.596;2022-10-16T02:46:32;1.60;;;1.50;;
66633;SDS011;53546;52.184;5.596;2022-10-16T02:48:58;3.05;;;1.52;;
66633;SDS011;53546;52.184;5.596;2022-10-16T02:51:23;1.80;;;1.40;;
66633;SDS011;53546;52.184;5.596;2022-10-16T02:53:49;3.05;;;1.45;;
66633;SDS011;53546;52.184;5.596;2022-10-16T02:56:14;1.63;;;1.50;;
66633;SDS011;53546;52.184;5.596;2022-10-16T02:58:40;2.60;;;1.40;;
66633;SDS011;53546;52.184;5.596;2022-10-16T03:01:05;4.07;;;1.60;;
66633;SDS011;53546;52.184;5.596;2022-10-16T03:03:30;1.95;;;1.30;;
66633;SDS011;53546;52.184;5.596;2022-10-16T03:05:56;2.08;;;1.40;;
66633;SDS011;53546;52.184;5.596;2022-10-16T03:08:21;1.80;;;1.48;;
66633;SDS011;53546;52.184;5.596;2022-10-16T03:10:49;2.28;;;1.48;;
66633;SDS011;53546;52.184;5.596;2022-10-16T03:13:14;2.20;;;1.30;;
66633;SDS011;53546;52.184;5.596;2022-10-16T03:15:40;2.30;;;1.30;;
66633;SDS011;53546;52.184;5.596;2022-10-16T03:18:05;4.38;;;1.50;;
66633;SDS011;53546;52.184;5.596;2022-10-16T03:20:30;4.00;;;1.50;;
66633;SDS011;53546;52.184;5.596;2022-10-16T03:22:56;2.13;;;1.35;;
66633;SDS011;53546;52.184;5.596;2022-10-16T03:25:21;2.38;;;1.58;;
66633;SDS011;53546;52.184;5.596;2022-10-16T03:27:47;5.50;;;1.42;;
66633;SDS011;53546;52.184;5.596;2022-10-16T03:30:12;1.60;;;1.27;;
66633;SDS011;53546;52.184;5.596;2022-10-16T03:32:37;1.52;;;1.42;;
66633;SDS011;53546;52.184;5.596;2022-10-16T03:35:03;1.38;;;1.25;;
66633;SDS011;53546;52.184;5.596;2022-10-16T03:37:28;3.33;;;1.30;;
66633;SDS011;53546;52.184;5.596;2022-10-16T03:39:54;3.72;;;1.40;;
66633;SDS011;53546;52.184;5.596;2022-10-16T03:42:19;2.55;;;1.30;;
66633;SDS011;53546;52.184;5.596;2022-10-16T03:44:45;5.80;;;1.70;;
66633;SDS011;53546;52.184;5.596;2022-10-16T03:47:10;2.75;;;1.42;;
66633;SDS011;53546;52.184;5.596;2022-10-16T03:49:36;1.77;;;1.25;;
66633;SDS011;53546;52.184;5.596;2022-10-16T03:52:01;2.08;;;1.40;;
66633;SDS011;53546;52.184;5.596;2022-10-16T03:54:26;3.17;;;1.38;;
66633;SDS011;53546;52.184;5.596;2022-10-16T03:56:52;1.48;;;1.38;;
66633;SDS011;53546;52.184;5.596;2022-10-16T03:59:17;4.38;;;1.40;;
66633;SDS011;53546;52.184;5.596;2022-10-16T04:01:42;3.83;;;1.30;;
66633;SDS011;53546;52.184;5.596;2022-10-16T04:04:08;4.75;;;1.27;;
66633;SDS011;53546;52.184;5.596;2022-10-16T04:06:33;1.33;;;1.20;;
66633;SDS011;53546;52.184;5.596;2022-10-16T04:08:59;1.33;;;1.23;;
66633;SDS011;53546;52.184;5.596;2022-10-16T04:11:24;1.42;;;1.20;;
66633;SDS011;53546;52.184;5.596;2022-10-16T04:13:49;1.40;;;1.20;;
66633;SDS011;53546;52.184;5.596;2022-10-16T04:16:15;2.20;;;1.30;;
66633;SDS011;53546;52.184;5.596;2022-10-16T04:18:40;2.22;;;1.20;;
66633;SDS011;53546;52.184;5.596;2022-10-16T04:21:06;1.60;;;1.40;;
66633;SDS011;53546;52.184;5.596;2022-10-16T04:23:31;2.03;;;1.45;;
66633;SDS011;53546;52.184;5.596;2022-10-16T04:25:57;2.10;;;1.27;;
66633;SDS011;53546;52.184;5.596;2022-10-16T04:28:22;2.33;;;1.40;;
66633;SDS011;53546;52.184;5.596;2022-10-16T04:30:48;1.55;;;1.40;;
66633;SDS011;53546;52.184;5.596;2022-10-16T04:33:13;2.35;;;1.15;;
66633;SDS011;53546;52.184;5.596;2022-10-16T04:35:39;2.88;;;1.15;;
66633;SDS011;53546;52.184;5.596;2022-10-16T04:38:04;3.28;;;1.25;;
66633;SDS011;53546;52.184;5.596;2022-10-16T04:40:29;3.08;;;1.40;;
66633;SDS011;53546;52.184;5.596;2022-10-16T04:42:58;3.72;;;1.20;;
66633;SDS011;53546;52.184;5.596;2022-10-16T04:45:23;2.92;;;1.10;;
66633;SDS011;53546;52.184;5.596;2022-10-16T04:47:49;1.40;;;1.13;;
66633;SDS011;53546;52.184;5.596;2022-10-16T04:50:14;2.30;;;1.10;;
66633;SDS011;53546;52.184;5.596;2022-10-16T04:52:40;1.38;;;1.13;;
66633;SDS011;53546;52.184;5.596;2022-10-16T04:55:05;3.47;;;1.30;;
66633;SDS011;53546;52.184;5.596;2022-10-16T04:57:31;1.88;;;1.10;;
66633;SDS011;53546;52.184;5.596;2022-10-16T04:59:58;1.77;;;1.30;;
66633;SDS011;53546;52.184;5.596;2022-10-16T05:02:23;1.35;;;1.17;;
66633;SDS011;53546;52.184;5.596;2022-10-16T05:04:49;3.83;;;1.20;;
66633;SDS011;53546;52.184;5.596;2022-10-16T05:07:14;4.90;;;1.40;;
66633;SDS011;53546;52.184;5.596;2022-10-16T05:09:40;1.75;;;1.10;;
66633;SDS011;53546;52.184;5.596;2022-10-16T05:12:05;2.75;;;1.27;;
66633;SDS011;53546;52.184;5.596;2022-10-16T05:14:31;1.45;;;1.20;;
66633;SDS011;53546;52.184;5.596;2022-10-16T05:16:56;3.05;;;1.17;;
66633;SDS011;53546;52.184;5.596;2022-10-16T05:19:22;1.38;;;1.00;;
66633;SDS011;53546;52.184;5.596;2022-10-16T05:21:47;1.23;;;1.10;;
66633;SDS011;53546;52.184;5.596;2022-10-16T05:24:12;1.92;;;1.20;;
66633;SDS011;53546;52.184;5.596;2022-10-16T05:26:38;1.75;;;1.35;;
66633;SDS011;53546;52.184;5.596;2022-10-16T05:29:03;1.23;;;1.10;;
66633;SDS011;53546;52.184;5.596;2022-10-16T05:31:28;3.65;;;1.20;;
66633;SDS011;53546;52.184;5.596;2022-10-16T05:33:58;1.30;;;1.20;;
66633;SDS011;53546;52.184;5.596;2022-10-16T05:36:24;1.67;;;1.25;;
66633;SDS011;53546;52.184;5.596;2022-10-16T05:38:50;1.23;;;1.10;;
66633;SDS011;53546;52.184;5.596;2022-10-16T05:41:15;3.03;;;1.30;;
66633;SDS011;53546;52.184;5.596;2022-10-16T05:43:46;1.48;;;1.10;;
66633;SDS011;53546;52.184;5.596;2022-10-16T05:46:11;10.95;;;1.33;;
66633;SDS011;53546;52.184;5.596;2022-10-16T05:48:37;2.60;;;1.15;;
66633;SDS011;53546;52.184;5.596;2022-10-16T05:51:03;4.43;;;1.23;;
66633;SDS011;53546;52.184;5.596;2022-10-16T05:53:33;5.07;;;1.50;;
66633;SDS011;53546;52.184;5.596;2022-10-16T05:55:59;10.02;;;1.50;;
66633;SDS011;53546;52.184;5.596;2022-10-16T05:58:25;4.28;;;1.52;;
66633;SDS011;53546;52.184;5.596;2022-10-16T06:00:57;7.70;;;1.67;;
66633;SDS011;53546;52.184;5.596;2022-10-16T06:03:24;2.30;;;1.60;;
66633;SDS011;53546;52.184;5.596;2022-10-16T06:05:50;4.13;;;1.63;;
66633;SDS011;53546;52.184;5.596;2022-10-16T06:08:16;7.03;;;1.42;;
66633;SDS011;53546;52.184;5.596;2022-10-16T06:10:41;6.68;;;1.70;;
66633;SDS011;53546;52.184;5.596;2022-10-16T06:13:07;4.55;;;1.75;;
66633;SDS011;53546;52.184;5.596;2022-10-16T06:15:32;5.35;;;1.83;;
66633;SDS011;53546;52.184;5.596;2022-10-16T06:17:58;4.88;;;1.75;;
66633;SDS011;53546;52.184;5.596;2022-10-16T06:20:23;5.80;;;1.80;;
66633;SDS011;53546;52.184;5.596;2022-10-16T06:22:48;4.28;;;1.83;;
66633;SDS011;53546;52.184;5.596;2022-10-16T06:25:13;4.45;;;1.67;;
66633;SDS011;53546;52.184;5.596;2022-10-16T06:27:39;3.97;;;2.03;;
66633;SDS011;53546;52.184;5.596;2022-10-16T06:30:06;4.05;;;1.70;;
66633;SDS011;53546;52.184;5.596;2022-10-16T06:32:32;7.93;;;2.00;;
66633;SDS011;53546;52.184;5.596;2022-10-16T06:34:57;8.27;;;1.65;;
66633;SDS011;53546;52.184;5.596;2022-10-16T06:37:22;3.95;;;1.58;;
66633;SDS011;53546;52.184;5.596;2022-10-16T06:39:48;5.35;;;1.90;;
66633;SDS011;53546;52.184;5.596;2022-10-16T06:42:13;6.68;;;2.03;;
66633;SDS011;53546;52.184;5.596;2022-10-16T06:44:38;3.55;;;1.80;;
66633;SDS011;53546;52.184;5.596;2022-10-16T06:47:04;6.32;;;1.98;;
66633;SDS011;53546;52.184;5.596;2022-10-16T06:49:29;4.43;;;2.05;;
66633;SDS011;53546;52.184;5.596;2022-10-16T06:51:54;5.78;;;2.08;;
66633;SDS011;53546;52.184;5.596;2022-10-16T06:54:20;4.53;;;1.95;;
66633;SDS011;53546;52.184;5.596;2022-10-16T06:56:45;3.10;;;1.90;;
66633;SDS011;53546;52.184;5.596;2022-10-16T06:59:11;4.10;;;1.80;;
66633;SDS011;53546;52.184;5.596;2022-10-16T07:01:36;7.45;;;2.13;;
66633;SDS011;53546;52.184;5.596;2022-10-16T07:04:02;3.17;;;1.80;;
66633;SDS011;53546;52.184;5.596;2022-10-16T07:06:30;3.22;;;2.03;;
66633;SDS011;53546;52.184;5.596;2022-10-16T07:08:57;5.85;;;2.17;;
66633;SDS011;53546;52.184;5.596;2022-10-16T07:11:23;10.25;;;2.38;;
66633;SDS011;53546;52.184;5.596;2022-10-16T07:13:49;4.05;;;2.00;;
66633;SDS011;53546;52.184;5.596;2022-10-16T07:16:16;7.60;;;2.10;;
66633;SDS011;53546;52.184;5.596;2022-10-16T07:18:43;5.95;;;2.20;;
66633;SDS011;53546;52.184;5.596;2022-10-16T07:21:11;6.07;;;2.20;;
66633;SDS011;53546;52.184;5.596;2022-10-16T07:23:38;4.80;;;1.95;;
66633;SDS011;53546;52.184;5.596;2022-10-16T07:26:05;5.60;;;2.28;;
66633;SDS011;53546;52.184;5.596;2022-10-16T07:28:31;4.43;;;2.15;;
66633;SDS011;53546;52.184;5.596;2022-10-16T07:31:04;5.63;;;2.20;;
66633;SDS011;53546;52.184;5.596;2022-10-16T07:33:32;5.28;;;2.00;;
66633;SDS011;53546;52.184;5.596;2022-10-16T07:35:58;8.57;;;2.17;;
66633;SDS011;53546;52.184;5.596;2022-10-16T07:38:23;3.92;;;2.00;;
66633;SDS011;53546;52.184;5.596;2022-10-16T07:40:55;6.03;;;2.10;;
66633;SDS011;53546;52.184;5.596;2022-10-16T07:43:21;6.28;;;2.05;;
66633;SDS011;53546;52.184;5.596;2022-10-16T07:45:47;5.25;;;2.17;;
66633;SDS011;53546;52.184;5.596;2022-10-16T07:48:16;10.93;;;1.95;;
66633;SDS011;53546;52.184;5.596;2022-10-16T07:50:42;4.53;;;1.80;;
66633;SDS011;53546;52.184;5.596;2022-10-16T07:53:08;4.18;;;1.80;;
66633;SDS011;53546;52.184;5.596;2022-10-16T07:55:33;2.65;;;1.52;;
66633;SDS011;53546;52.184;5.596;2022-10-16T07:57:58;9.23;;;1.88;;
66633;SDS011;53546;52.184;5.596;2022-10-16T08:00:24;9.55;;;1.90;;
66633;SDS011;53546;52.184;5.596;2022-10-16T08:02:49;20.15;;;1.92;;
66633;SDS011;53546;52.184;5.596;2022-10-16T08:05:15;13.52;;;1.90;;
66633;SDS011;53546;52.184;5.596;2022-10-16T08:07:40;5.75;;;1.90;;
66633;SDS011;53546;52.184;5.596;2022-10-16T08:10:06;5.40;;;1.85;;
66633;SDS011;53546;52.184;5.596;2022-10-16T08:12:31;4.43;;;1.80;;
66633;SDS011;53546;52.184;5.596;2022-10-16T08:14:56;11.23;;;2.00;;
66633;SDS011;53546;52.184;5.596;2022-10-16T08:17:22;3.58;;;1.63;;
66633;SDS011;53546;52.184;5.596;2022-10-16T08:19:47;6.70;;;1.85;;
66633;SDS011;53546;52.184;5.596;2022-10-16T08:22:13;8.52;;;1.80;;
66633;SDS011;53546;52.184;5.596;2022-10-16T08:24:39;11.77;;;2.00;;
66633;SDS011;53546;52.184;5.596;2022-10-16T08:27:05;10.25;;;1.77;;
66633;SDS011;53546;52.184;5.596;2022-10-16T08:29:30;2.65;;;1.40;;
66633;SDS011;53546;52.184;5.596;2022-10-16T08:31:56;9.90;;;1.73;;
66633;SDS011;53546;52.184;5.596;2022-10-16T08:34:21;11.70;;;1.92;;
66633;SDS011;53546;52.184;5.596;2022-10-16T08:36:46;7.15;;;1.80;;
66633;SDS011;53546;52.184;5.596;2022-10-16T08:39:12;10.57;;;1.80;;
66633;SDS011;53546;52.184;5.596;2022-10-16T08:48:17;16.85;;;1.75;;
66633;SDS011;53546;52.184;5.596;2022-10-16T08:50:48;7.88;;;2.08;;
66633;SDS011;53546;52.184;5.596;2022-10-16T08:53:16;8.07;;;1.80;;
66633;SDS011;53546;52.184;5.596;2022-10-16T08:55:46;5.18;;;1.67;;
66633;SDS011;53546;52.184;5.596;2022-10-16T08:58:19;11.15;;;2.30;;
66633;SDS011;53546;52.184;5.596;2022-10-16T09:00:55;7.03;;;1.70;;
66633;SDS011;53546;52.184;5.596;2022-10-16T09:11:47;7.07;;;1.67;;
66633;SDS011;53546;52.184;5.596;2022-10-16T09:16:54;6.20;;;1.85;;
66633;SDS011;53546;52.184;5.596;2022-10-16T09:19:28;8.90;;;1.67;;
66633;SDS011;53546;52.184;5.596;2022-10-16T09:21:57;9.23;;;2.08;;
66633;SDS011;53546;52.184;5.596;2022-10-16T09:24:25;17.13;;;1.80;;
66633;SDS011;53546;52.184;5.596;2022-10-16T09:26:51;7.95;;;1.65;;
66633;SDS011;53546;52.184;5.596;2022-10-16T09:29:17;5.70;;;1.40;;
66633;SDS011;53546;52.184;5.596;2022-10-16T09:31:45;4.97;;;1.40;;
66633;SDS011;53546;52.184;5.596;2022-10-16T09:34:32;8.55;;;1.85;;
66633;SDS011;53546;52.184;5.596;2022-10-16T09:37:00;11.15;;;1.83;;
66633;SDS011;53546;52.184;5.596;2022-10-16T09:39:28;7.43;;;1.70;;
66633;SDS011;53546;52.184;5.596;2022-10-16T09:41:53;10.95;;;1.70;;
66633;SDS011;53546;52.184;5.596;2022-10-16T09:44:22;8.20;;;1.92;;
66633;SDS011;53546;52.184;5.596;2022-10-16T09:47:00;6.22;;;1.75;;
66633;SDS011;53546;52.184;5.596;2022-10-16T09:49:30;6.38;;;1.95;;
66633;SDS011;53546;52.184;5.596;2022-10-16T09:52:09;14.93;;;2.33;;
66633;SDS011;53546;52.184;5.596;2022-10-16T09:54:37;11.43;;;2.20;;
66633;SDS011;53546;52.184;5.596;2022-10-16T09:57:06;14.20;;;2.17;;
66633;SDS011;53546;52.184;5.596;2022-10-16T09:59:32;11.20;;;2.22;;
66633;SDS011;53546;52.184;5.596;2022-10-16T10:02:00;9.02;;;2.00;;
66633;SDS011;53546;52.184;5.596;2022-10-16T10:04:36;14.00;;;2.72;;
66633;SDS011;53546;52.184;5.596;2022-10-16T10:07:03;8.27;;;1.70;;
66633;SDS011;53546;52.184;5.596;2022-10-16T10:09:31;6.95;;;1.60;;
66633;SDS011;53546;52.184;5.596;2022-10-16T10:12:00;10.25;;;1.98;;
66633;SDS011;53546;52.184;5.596;2022-10-16T10:14:36;10.48;;;2.03;;
66633;SDS011;53546;52.184;5.596;2022-10-16T10:17:14;6.63;;;1.60;;
66633;SDS011;53546;52.184;5.596;2022-10-16T10:19:44;7.95;;;1.80;;
66633;SDS011;53546;52.184;5.596;2022-10-16T10:38:41;6.50;;;1.90;;
66633;SDS011;53546;52.184;5.596;2022-10-16T11:05:55;8.38;;;2.10;;
66633;SDS011;53546;52.184;5.596;2022-10-16T11:08:23;13.75;;;1.90;;
66633;SDS011;53546;52.184;5.596;2022-10-16T11:11:04;4.65;;;1.80;;
66633;SDS011;53546;52.184;5.596;2022-10-16T11:13:36;10.48;;;1.63;;
66633;SDS011;53546;52.184;5.596;2022-10-16T11:16:19;5.68;;;1.80;;
66633;SDS011;53546;52.184;5.596;2022-10-16T11:21:48;5.55;;;1.63;;
66633;SDS011;53546;52.184;5.596;2022-10-16T11:24:37;8.75;;;2.15;;
66633;SDS011;53546;52.184;5.596;2022-10-16T11:27:08;9.95;;;1.75;;
66633;SDS011;53546;52.184;5.596;2022-10-16T11:29:39;10.00;;;1.63;;
66633;SDS011;53546;52.184;5.596;2022-10-16T11:32:34;15.23;;;2.15;;
66633;SDS011;53546;52.184;5.596;2022-10-16T11:35:02;12.38;;;2.10;;
66633;SDS011;53546;52.184;5.596;2022-10-16T11:37:40;6.13;;;1.67;;
66633;SDS011;53546;52.184;5.596;2022-10-16T11:40:28;6.82;;;1.92;;
66633;SDS011;53546;52.184;5.596;2022-10-16T11:43:15;5.60;;;1.80;;
66633;SDS011;53546;52.184;5.596;2022-10-16T11:45:51;6.65;;;1.77;;
66633;SDS011;53546;52.184;5.596;2022-10-16T11:48:27;12.20;;;2.25;;
66633;SDS011;53546;52.184;5.596;2022-10-16T11:51:06;9.23;;;1.83;;
66633;SDS011;53546;52.184;5.596;2022-10-16T11:54:02;6.70;;;1.70;;
66633;SDS011;53546;52.184;5.596;2022-10-16T11:56:24;6.70;;;1.90;;
66633;SDS011;53546;52.184;5.596;2022-10-16T11:58:52;7.40;;;1.70;;
66633;SDS011;53546;52.184;5.596;2022-10-16T12:09:34;10.75;;;1.92;;
66633;SDS011;53546;52.184;5.596;2022-10-16T12:12:02;4.43;;;1.75;;
66633;SDS011;53546;52.184;5.596;2022-10-16T12:16:57;9.05;;;1.88;;
66633;SDS011;53546;52.184;5.596;2022-10-16T12:19:27;6.70;;;1.55;;
66633;SDS011;53546;52.184;5.596;2022-10-16T12:21:55;7.00;;;2.15;;
66633;SDS011;53546;52.184;5.596;2022-10-16T12:27:04;6.78;;;2.00;;
66633;SDS011;53546;52.184;5.596;2022-10-16T12:32:04;7.70;;;1.90;;
66633;SDS011;53546;52.184;5.596;2022-10-16T12:34:39;10.27;;;2.00;;
66633;SDS011;53546;52.184;5.596;2022-10-16T12:37:12;6.97;;;2.00;;
66633;SDS011;53546;52.184;5.596;2022-10-16T12:39:40;10.60;;;2.17;;
66633;SDS011;53546;52.184;5.596;2022-10-16T12:42:19;4.80;;;1.77;;
66633;SDS011;53546;52.184;5.596;2022-10-16T12:44:47;5.88;;;1.75;;
66633;SDS011;53546;52.184;5.596;2022-10-16T12:47:23;6.47;;;1.70;;
66633;SDS011;53546;52.184;5.596;2022-10-16T12:49:55;6.63;;;1.70;;
66633;SDS011;53546;52.184;5.596;2022-10-16T12:52:37;7.75;;;1.88;;
66633;SDS011;53546;52.184;5.596;2022-10-16T12:55:04;5.25;;;1.70;;
66633;SDS011;53546;52.184;5.596;2022-10-16T12:57:40;3.25;;;1.48;;
66633;SDS011;53546;52.184;5.596;2022-10-16T13:11:13;7.32;;;1.70;;
66633;SDS011;53546;52.184;5.596;2022-10-16T13:29:54;6.80;;;1.90;;
66633;SDS011;53546;52.184;5.596;2022-10-16T13:32:25;6.13;;;1.70;;
66633;SDS011;53546;52.184;5.596;2022-10-16T13:34:51;9.93;;;1.80;;
66633;SDS011;53546;52.184;5.596;2022-10-16T13:37:19;6.70;;;1.65;;
66633;SDS011;53546;52.184;5.596;2022-10-16T13:39:48;6.22;;;1.85;;
66633;SDS011;53546;52.184;5.596;2022-10-16T13:42:25;5.25;;;1.60;;
66633;SDS011;53546;52.184;5.596;2022-10-16T13:44:53;7.43;;;1.83;;
66633;SDS011;53546;52.184;5.596;2022-10-16T13:47:20;7.30;;;2.00;;
66633;SDS011;53546;52.184;5.596;2022-10-16T13:53:09;6.13;;;1.90;;
66633;SDS011;53546;52.184;5.596;2022-10-16T13:55:38;5.85;;;1.40;;
66633;SDS011;53546;52.184;5.596;2022-10-16T13:58:04;10.10;;;1.70;;
66633;SDS011;53546;52.184;5.596;2022-10-16T14:00:32;7.13;;;1.80;;
66633;SDS011;53546;52.184;5.596;2022-10-16T14:03:05;4.15;;;1.83;;
66633;SDS011;53546;52.184;5.596;2022-10-16T14:05:36;9.63;;;1.90;;
66633;SDS011;53546;52.184;5.596;2022-10-16T14:08:09;3.78;;;1.60;;
66633;SDS011;53546;52.184;5.596;2022-10-16T14:10:36;8.52;;;1.75;;
66633;SDS011;53546;52.184;5.596;2022-10-16T14:13:02;6.50;;;1.55;;
66633;SDS011;53546;52.184;5.596;2022-10-16T14:15:30;3.92;;;1.40;;
66633;SDS011;53546;52.184;5.596;2022-10-16T14:17:56;8.13;;;1.95;;
66633;SDS011;53546;52.184;5.596;2022-10-16T14:20:24;9.02;;;1.90;;
66633;SDS011;53546;52.184;5.596;2022-10-16T14:25:45;11.70;;;1.73;;
66633;SDS011;53546;52.184;5.596;2022-10-16T14:30:54;7.40;;;1.63;;
66633;SDS011;53546;52.184;5.596;2022-10-16T14:33:22;6.72;;;1.52;;
66633;SDS011;53546;52.184;5.596;2022-10-16T14:35:59;6.00;;;1.60;;
66633;SDS011;53546;52.184;5.596;2022-10-16T14:38:25;12.45;;;2.10;;
66633;SDS011;53546;52.184;5.596;2022-10-16T14:40:50;8.38;;;1.88;;
66633;SDS011;53546;52.184;5.596;2022-10-16T14:43:24;6.97;;;1.70;;
66633;SDS011;53546;52.184;5.596;2022-10-16T14:45:55;12.57;;;1.70;;
66633;SDS011;53546;52.184;5.596;2022-10-16T14:48:21;9.77;;;2.58;;
66633;SDS011;53546;52.184;5.596;2022-10-16T14:50:47;10.18;;;1.83;;
66633;SDS011;53546;52.184;5.596;2022-10-16T14:53:13;10.57;;;1.90;;
66633;SDS011;53546;52.184;5.596;2022-10-16T14:55:39;4.97;;;1.92;;
66633;SDS011;53546;52.184;5.596;2022-10-16T14:58:07;8.15;;;1.70;;
66633;SDS011;53546;52.184;5.596;2022-10-16T15:00:40;9.75;;;2.28;;
66633;SDS011;53546;52.184;5.596;2022-10-16T15:03:06;11.43;;;1.77;;
66633;SDS011;53546;52.184;5.596;2022-10-16T15:05:31;9.02;;;1.90;;
66633;SDS011;53546;52.184;5.596;2022-10-16T15:07:57;9.75;;;2.05;;
66633;SDS011;53546;52.184;5.596;2022-10-16T15:10:23;13.75;;;2.03;;
66633;SDS011;53546;52.184;5.596;2022-10-16T15:12:50;7.80;;;1.70;;
66633;SDS011;53546;52.184;5.596;2022-10-16T15:18:00;6.53;;;1.70;;
66633;SDS011;53546;52.184;5.596;2022-10-16T15:20:27;5.80;;;1.60;;
66633;SDS011;53546;52.184;5.596;2022-10-16T15:22:59;9.98;;;1.70;;
66633;SDS011;53546;52.184;5.596;2022-10-16T15:25:30;11.80;;;2.35;;
66633;SDS011;53546;52.184;5.596;2022-10-16T15:27:59;9.25;;;2.22;;
66633;SDS011;53546;52.184;5.596;2022-10-16T15:30:25;10.77;;;2.63;;
66633;SDS011;53546;52.184;5.596;2022-10-16T15:32:50;12.40;;;2.70;;
66633;SDS011;53546;52.184;5.596;2022-10-16T15:35:16;8.65;;;2.85;;
66633;SDS011;53546;52.184;5.596;2022-10-16T15:37:41;8.32;;;3.72;;
66633;SDS011;53546;52.184;5.596;2022-10-16T15:40:08;9.63;;;3.97;;
66633;SDS011;53546;52.184;5.596;2022-10-16T15:42:34;13.50;;;5.85;;
66633;SDS011;53546;52.184;5.596;2022-10-16T15:44:59;62.45;;;30.35;;
66633;SDS011;53546;52.184;5.596;2022-10-16T15:47:24;190.43;;;91.20;;
66633;SDS011;53546;52.184;5.596;2022-10-16T15:49:50;210.43;;;106.50;;
66633;SDS011;53546;52.184;5.596;2022-10-16T15:52:15;219.32;;;118.15;;
66633;SDS011;53546;52.184;5.596;2022-10-16T15:54:42;207.15;;;113.18;;
66633;SDS011;53546;52.184;5.596;2022-10-16T15:57:08;266.27;;;144.27;;
66633;SDS011;53546;52.184;5.596;2022-10-16T15:59:33;289.58;;;154.73;;
66633;SDS011;53546;52.184;5.596;2022-10-16T16:01:59;234.10;;;120.85;;
66633;SDS011;53546;52.184;5.596;2022-10-16T16:04:24;230.10;;;126.90;;
66633;SDS011;53546;52.184;5.596;2022-10-16T16:06:49;272.77;;;143.68;;
66633;SDS011;53546;52.184;5.596;2022-10-16T16:09:15;298.48;;;164.52;;
66633;SDS011;53546;52.184;5.596;2022-10-16T16:11:40;352.92;;;196.85;;
66633;SDS011;53546;52.184;5.596;2022-10-16T16:14:06;362.98;;;217.05;;
66633;SDS011;53546;52.184;5.596;2022-10-16T16:16:32;287.98;;;163.77;;
66633;SDS011;53546;52.184;5.596;2022-10-16T16:19:03;283.92;;;163.93;;
66633;SDS011;53546;52.184;5.596;2022-10-16T16:21:32;267.80;;;148.35;;
66633;SDS011;53546;52.184;5.596;2022-10-16T16:23:58;253.43;;;145.50;;
66633;SDS011;53546;52.184;5.596;2022-10-16T16:28:51;234.75;;;135.00;;
66633;SDS011;53546;52.184;5.596;2022-10-16T16:31:18;243.18;;;136.10;;
66633;SDS011;53546;52.184;5.596;2022-10-16T16:33:43;223.82;;;124.47;;
66633;SDS011;53546;52.184;5.596;2022-10-16T16:36:09;216.82;;;121.32;;
66633;SDS011;53546;52.184;5.596;2022-10-16T16:38:34;199.10;;;111.80;;
66633;SDS011;53546;52.184;5.596;2022-10-16T16:41:00;195.23;;;106.25;;
66633;SDS011;53546;52.184;5.596;2022-10-16T16:43:36;178.75;;;97.72;;
66633;SDS011;53546;52.184;5.596;2022-10-16T16:46:01;186.18;;;102.78;;
66633;SDS011;53546;52.184;5.596;2022-10-16T16:48:27;161.00;;;92.18;;
66633;SDS011;53546;52.184;5.596;2022-10-16T16:50:52;159.20;;;90.78;;
66633;SDS011;53546;52.184;5.596;2022-10-16T16:53:17;162.20;;;89.25;;
66633;SDS011;53546;52.184;5.596;2022-10-16T16:55:43;160.77;;;86.72;;
66633;SDS011;53546;52.184;5.596;2022-10-16T16:58:08;159.05;;;85.72;;
66633;SDS011;53546;52.184;5.596;2022-10-16T17:00:34;154.88;;;83.93;;